createdAt,value
2018-10-07T00:01:10.054Z,17.21
2018-10-07T00:03:39.459Z,17.16
2018-10-07T00:06:09.828Z,17.08
2018-10-07T00:08:39.108Z,17.04
2018-10-07T00:11:11.041Z,17.07
2018-10-07T00:13:45.591Z,17.05
2018-10-07T00:16:33.626Z,17.00
2018-10-07T00:19:05.765Z,16.96
2018-10-07T00:21:35.861Z,16.99
2018-10-07T00:24:07.421Z,16.97
2018-10-07T00:26:39.925Z,17.01
2018-10-07T00:29:09.497Z,16.97
2018-10-07T00:31:44.151Z,17.01
2018-10-07T00:34:13.557Z,16.94
2018-10-07T00:36:42.922Z,16.94
2018-10-07T00:39:12.668Z,16.89
2018-10-07T00:41:42.125Z,16.87
2018-10-07T00:44:11.822Z,16.82
2018-10-07T00:46:41.352Z,16.80
2018-10-07T00:49:12.869Z,16.78
2018-10-07T00:51:42.401Z,16.75
2018-10-07T00:54:12.471Z,16.73
2018-10-07T00:56:43.536Z,16.70
2018-10-07T00:59:13.112Z,16.73
2018-10-07T01:01:42.418Z,16.69
2018-10-07T01:04:11.840Z,16.67
2018-10-07T01:06:41.312Z,16.64
2018-10-07T01:09:12.176Z,16.67
2018-10-07T01:11:42.890Z,16.64
2018-10-07T01:14:12.405Z,16.73
2018-10-07T01:16:41.886Z,16.67
2018-10-07T01:19:11.286Z,16.70
2018-10-07T01:21:40.867Z,16.77
2018-10-07T01:24:10.260Z,16.81
2018-10-07T01:26:39.726Z,16.73
2018-10-07T01:29:10.699Z,16.72
2018-10-07T01:31:40.903Z,16.70
2018-10-07T01:34:12.137Z,16.73
2018-10-07T01:36:42.029Z,16.68
2018-10-07T01:39:12.230Z,16.66
2018-10-07T01:41:41.757Z,16.64
2018-10-07T01:44:11.521Z,16.63
2018-10-07T01:46:41.294Z,16.61
2018-10-07T01:49:11.606Z,16.53
2018-10-07T01:51:41.459Z,16.42
2018-10-07T01:54:22.755Z,16.35
2018-10-07T01:56:53.594Z,16.30
2018-10-07T01:59:23.008Z,16.29
2018-10-07T02:01:52.333Z,16.26
2018-10-07T02:04:21.854Z,16.19
2018-10-07T02:06:51.350Z,16.21
2018-10-07T02:09:20.888Z,16.17
2018-10-07T02:11:50.587Z,16.17
2018-10-07T02:14:21.922Z,16.16
2018-10-07T02:16:51.620Z,16.08
2018-10-07T02:19:23.437Z,16.07
2018-10-07T02:21:54.847Z,16.03
2018-10-07T02:24:24.992Z,16.01
2018-10-07T02:26:54.606Z,16.07
2018-10-07T02:29:24.356Z,16.03
2018-10-07T02:31:54.640Z,15.97
2018-10-07T02:34:24.362Z,15.95
2018-10-07T02:36:53.756Z,15.94
2018-10-07T02:39:23.731Z,15.97
2018-10-07T02:41:53.694Z,15.97
2018-10-07T02:44:23.488Z,15.97
2018-10-07T02:46:53.396Z,15.98
2018-10-07T02:49:23.085Z,15.97
2018-10-07T02:51:52.970Z,15.95
2018-10-07T02:54:23.448Z,15.95
2018-10-07T02:56:54.060Z,15.87
2018-10-07T02:59:24.568Z,15.87
2018-10-07T03:01:54.448Z,15.85
2018-10-07T03:04:25.731Z,15.80
2018-10-07T03:06:55.718Z,15.73
2018-10-07T03:09:25.854Z,15.72
2018-10-07T03:11:56.053Z,15.75
2018-10-07T03:14:26.212Z,15.69
2018-10-07T03:16:57.108Z,15.62
2018-10-07T03:19:26.680Z,15.66
2018-10-07T03:21:56.474Z,15.64
2018-10-07T03:24:25.975Z,15.58
2018-10-07T03:26:56.100Z,15.63
2018-10-07T03:29:25.756Z,15.63
2018-10-07T03:31:55.842Z,15.62
2018-10-07T03:34:26.605Z,15.62
2018-10-07T03:36:57.406Z,15.63
2018-10-07T03:39:30.042Z,15.61
2018-10-07T03:42:01.726Z,15.59
2018-10-07T03:44:33.101Z,15.64
2018-10-07T03:47:03.917Z,15.57
2018-10-07T03:49:34.618Z,15.47
2018-10-07T03:52:06.885Z,15.33
2018-10-07T03:54:38.185Z,15.26
2018-10-07T03:57:07.518Z,15.23
2018-10-07T03:59:37.434Z,15.12
2018-10-07T04:02:06.982Z,15.03
2018-10-07T04:04:36.493Z,14.93
2018-10-07T04:07:06.302Z,14.95
2018-10-07T04:09:35.999Z,14.93
2018-10-07T04:12:06.593Z,14.92
2018-10-07T04:14:36.751Z,14.75
2018-10-07T04:17:07.999Z,14.72
2018-10-07T04:19:41.037Z,14.70
2018-10-07T04:22:10.983Z,14.69
2018-10-07T04:24:41.782Z,14.67
2018-10-07T04:27:12.058Z,14.68
2018-10-07T04:29:42.000Z,14.68
2018-10-07T04:32:12.061Z,14.65
2018-10-07T04:34:41.921Z,14.64
2018-10-07T04:37:11.596Z,14.60
2018-10-07T04:39:41.586Z,14.63
2018-10-07T04:42:15.349Z,14.67
2018-10-07T04:44:45.281Z,14.62
2018-10-07T04:47:15.423Z,14.60
2018-10-07T04:49:45.835Z,14.59
2018-10-07T04:52:17.959Z,14.51
2018-10-07T04:54:47.836Z,14.49
2018-10-07T04:57:17.500Z,14.44
2018-10-07T04:59:47.105Z,14.37
2018-10-07T05:02:16.822Z,14.23
2018-10-07T05:04:47.111Z,14.29
2018-10-07T05:07:16.751Z,14.16
2018-10-07T05:09:47.744Z,14.08
2018-10-07T05:12:18.544Z,14.05
2018-10-07T05:14:48.384Z,14.02
2018-10-07T05:17:18.348Z,14.02
2018-10-07T05:19:52.573Z,13.98
2018-10-07T05:22:22.453Z,13.96
2018-10-07T05:24:53.146Z,14.09
2018-10-07T05:27:23.455Z,13.99
2018-10-07T05:29:53.070Z,13.90
2018-10-07T05:32:23.040Z,13.94
2018-10-07T05:34:52.669Z,13.92
2018-10-07T05:37:22.190Z,13.97
2018-10-07T05:39:53.909Z,14.01
2018-10-07T05:42:25.785Z,13.98
2018-10-07T05:44:56.172Z,13.94
2018-10-07T05:47:30.856Z,13.93
2018-10-07T05:50:00.496Z,13.92
2018-10-07T05:52:30.314Z,13.83
2018-10-07T05:54:59.762Z,13.85
2018-10-07T06:00:13.639Z,13.67
2018-10-07T06:02:45.632Z,13.73
2018-10-07T06:05:16.116Z,13.73
2018-10-07T06:07:45.819Z,13.69
2018-10-07T06:10:15.296Z,13.74
2018-10-07T06:12:58.008Z,13.67
2018-10-07T06:15:43.902Z,13.70
2018-10-07T06:18:13.435Z,13.71
2018-10-07T06:20:43.245Z,13.72
2018-10-07T06:23:12.650Z,13.73
2018-10-07T06:25:42.863Z,13.70
2018-10-07T06:28:12.277Z,13.58
2018-10-07T06:30:41.992Z,13.51
2018-10-07T06:33:11.522Z,13.42
2018-10-07T06:35:47.462Z,13.36
2018-10-07T06:38:17.736Z,13.37
2018-10-07T06:40:47.647Z,13.31
2018-10-07T06:43:19.231Z,13.36
2018-10-07T06:45:50.227Z,13.35
2018-10-07T06:48:20.077Z,13.40
2018-10-07T06:50:51.447Z,13.36
2018-10-07T06:53:21.335Z,13.41
2018-10-07T06:55:53.085Z,13.30
2018-10-07T06:58:23.233Z,13.37
2018-10-07T07:00:54.143Z,13.31
2018-10-07T07:03:29.736Z,13.25
2018-10-07T07:06:00.315Z,13.22
2018-10-07T07:08:30.619Z,13.14
2018-10-07T07:11:00.810Z,13.17
2018-10-07T07:13:30.508Z,13.24
2018-10-07T07:16:00.132Z,13.18
2018-10-07T07:18:30.241Z,13.12
2018-10-07T07:21:01.323Z,13.08
2018-10-07T07:23:32.938Z,13.15
2018-10-07T07:26:04.152Z,13.18
2018-10-07T07:28:37.943Z,13.13
2018-10-07T07:31:08.475Z,13.12
2018-10-07T07:43:03.501Z,13.09
2018-10-07T07:45:36.444Z,13.13
2018-10-07T07:48:10.498Z,13.16
2018-10-07T07:56:35.811Z,13.39
2018-10-07T07:59:14.146Z,13.42
2018-10-07T08:01:44.823Z,13.53
2018-10-07T08:04:15.120Z,13.62
2018-10-07T08:06:44.934Z,13.68
2018-10-07T08:09:14.755Z,13.80
2018-10-07T08:11:44.443Z,13.92
2018-10-07T08:14:14.828Z,13.99
2018-10-07T08:16:46.278Z,14.09
2018-10-07T08:19:17.622Z,14.18
2018-10-07T08:21:50.292Z,14.29
2018-10-07T08:24:21.368Z,14.38
2018-10-07T08:26:51.780Z,14.50
2018-10-07T08:29:22.884Z,14.49
2018-10-07T08:31:54.879Z,14.61
2018-10-07T08:34:25.995Z,14.33
2018-10-07T08:36:56.980Z,14.30
2018-10-07T08:39:27.027Z,14.33
2018-10-07T08:41:56.878Z,14.33
2018-10-07T08:44:26.545Z,14.25
2018-10-07T08:46:57.422Z,14.11
2018-10-07T08:49:27.995Z,14.06
2018-10-07T08:51:57.870Z,14.09
2018-10-07T08:54:28.276Z,14.10
2018-10-07T08:56:58.285Z,14.22
2018-10-07T08:59:27.814Z,14.32
2018-10-07T09:02:00.388Z,14.35
2018-10-07T09:04:30.382Z,14.28
2018-10-07T09:07:00.293Z,14.27
2018-10-07T09:09:30.057Z,14.32
2018-10-07T09:11:59.881Z,14.39
2018-10-07T09:14:30.546Z,14.51
2018-10-07T09:16:59.923Z,14.56
2018-10-07T09:19:29.431Z,14.64
2018-10-07T09:21:58.846Z,14.65
2018-10-07T09:24:28.842Z,14.57
2018-10-07T09:26:58.213Z,14.49
2018-10-07T09:29:28.008Z,14.45
2018-10-07T09:31:58.027Z,14.53
2018-10-07T09:34:28.146Z,14.53
2018-10-07T09:36:58.170Z,14.47
2018-10-07T09:39:27.627Z,14.48
2018-10-07T09:41:58.306Z,14.54
2018-10-07T09:44:27.653Z,14.61
2018-10-07T09:46:57.201Z,14.68
2018-10-07T09:49:26.902Z,14.72
2018-10-07T09:51:57.554Z,14.93
2018-10-07T09:54:27.374Z,15.07
2018-10-07T09:56:57.256Z,15.04
2018-10-07T09:59:27.011Z,15.02
2018-10-07T10:01:57.379Z,15.00
2018-10-07T10:04:28.142Z,15.07
2018-10-07T10:06:57.897Z,15.01
2018-10-07T10:09:27.477Z,15.00
2018-10-07T10:11:57.497Z,15.11
2018-10-07T10:14:27.209Z,15.00
2018-10-07T10:17:00.987Z,14.99
2018-10-07T10:19:38.292Z,14.95
2018-10-07T10:24:20.250Z,15.01
2018-10-07T10:27:33.556Z,15.02
2018-10-07T10:30:07.589Z,15.07
2018-10-07T10:32:47.275Z,15.13
2018-10-07T10:36:24.893Z,15.14
2018-10-07T10:39:06.060Z,15.22
2018-10-07T10:42:48.426Z,15.17
2018-10-07T10:45:35.891Z,15.32
2018-10-07T10:48:44.720Z,15.29
2018-10-07T10:52:21.846Z,15.28
2018-10-07T10:56:03.625Z,15.31
2018-10-07T10:58:40.389Z,15.24
2018-10-07T11:01:17.573Z,15.23
2018-10-07T11:03:56.708Z,15.27
2018-10-07T11:06:47.304Z,15.30
2018-10-07T11:09:26.664Z,15.32
2018-10-07T11:12:04.977Z,15.29
2018-10-07T11:14:45.552Z,15.31
2018-10-07T11:19:35.378Z,15.39
2018-10-07T11:22:26.489Z,15.56
2018-10-07T11:25:06.997Z,15.62
2018-10-07T11:27:59.212Z,15.69
2018-10-07T11:31:05.102Z,15.72
2018-10-07T11:34:03.115Z,15.72
2018-10-07T11:38:52.691Z,15.75
2018-10-07T11:42:31.121Z,15.86
2018-10-07T11:45:08.962Z,15.81
2018-10-07T11:48:03.242Z,15.96
2018-10-07T11:50:41.634Z,16.12
2018-10-07T11:53:30.286Z,16.43
2018-10-07T11:55:59.879Z,17.12
2018-10-07T11:58:29.351Z,17.65
2018-10-07T12:00:59.003Z,18.17
2018-10-07T12:03:29.290Z,18.37
2018-10-07T12:05:59.072Z,19.44
2018-10-07T12:08:39.387Z,20.24
2018-10-07T12:11:11.257Z,20.95
2018-10-07T12:13:40.756Z,20.86
2018-10-07T12:16:12.385Z,21.60
2018-10-07T12:18:41.791Z,21.38
2018-10-07T12:21:11.410Z,21.82
2018-10-07T12:23:40.814Z,21.79
2018-10-07T12:26:11.150Z,21.43
2018-10-07T12:28:40.712Z,21.15
2018-10-07T12:31:09.927Z,21.48
2018-10-07T12:33:39.566Z,21.45
2018-10-07T12:36:09.608Z,22.15
2018-10-07T12:38:39.008Z,22.31
2018-10-07T12:41:08.746Z,22.10
2018-10-07T12:43:38.488Z,22.30
2018-10-07T12:46:08.079Z,22.35
2018-10-07T12:48:37.432Z,22.38
2018-10-07T12:51:07.425Z,22.80
2018-10-07T12:53:37.101Z,23.03
2018-10-07T12:56:09.331Z,23.45
2018-10-07T12:58:39.879Z,24.30
2018-10-07T13:01:09.224Z,23.98
2018-10-07T13:03:38.697Z,23.93
2018-10-07T13:06:08.077Z,24.02
2018-10-07T13:08:38.314Z,23.90
2018-10-07T13:11:08.229Z,24.19
2018-10-07T13:13:37.609Z,24.09
2018-10-07T13:16:07.261Z,24.37
2018-10-07T13:18:36.787Z,24.16
2018-10-07T13:21:06.808Z,24.38
2018-10-07T13:23:36.384Z,24.69
2018-10-07T13:26:06.151Z,24.71
2018-10-07T13:28:35.557Z,24.65
2018-10-07T13:31:05.523Z,24.11
2018-10-07T13:33:35.671Z,23.43
2018-10-07T13:36:06.423Z,23.36
2018-10-07T13:38:35.848Z,23.09
2018-10-07T13:41:05.671Z,23.11
2018-10-07T13:43:35.250Z,23.03
2018-10-07T13:46:04.838Z,23.64
2018-10-07T13:48:34.277Z,23.42
2018-10-07T13:51:03.886Z,23.72
2018-10-07T13:53:33.306Z,23.35
2018-10-07T13:56:02.732Z,24.01
2018-10-07T13:58:32.079Z,23.55
2018-10-07T14:01:01.501Z,23.16
2018-10-07T14:03:31.134Z,22.15
2018-10-07T14:06:00.552Z,21.72
2018-10-07T14:08:30.001Z,21.48
2018-10-07T14:11:00.021Z,21.24
2018-10-07T14:13:30.201Z,21.07
2018-10-07T14:15:59.753Z,20.81
2018-10-07T14:18:29.410Z,20.61
2018-10-07T14:20:58.811Z,20.34
2018-10-07T14:23:28.301Z,19.98
2018-10-07T14:25:57.570Z,19.64
2018-10-07T14:28:26.984Z,19.25
2018-10-07T14:30:56.666Z,18.95
2018-10-07T14:33:26.020Z,18.79
2018-10-07T14:35:55.378Z,18.77
2018-10-07T14:38:24.876Z,18.75
2018-10-07T14:40:54.385Z,18.67
2018-10-07T14:43:25.553Z,18.62
2018-10-07T14:45:55.033Z,18.56
2018-10-07T14:48:24.518Z,18.43
2018-10-07T14:50:54.590Z,18.37
2018-10-07T14:53:24.578Z,18.33
2018-10-07T14:55:54.090Z,18.30
2018-10-07T14:58:24.760Z,18.21
2018-10-07T15:00:54.345Z,18.06
2018-10-07T15:03:24.127Z,18.03
2018-10-07T15:05:53.775Z,17.89
2018-10-07T15:08:23.498Z,17.75
2018-10-07T15:10:56.316Z,17.69
2018-10-07T15:13:25.998Z,17.77
2018-10-07T15:15:55.293Z,17.73
2018-10-07T15:18:25.045Z,17.71
2018-10-07T15:20:55.073Z,17.75
2018-10-07T15:23:24.768Z,17.71
2018-10-07T15:25:54.366Z,17.68
2018-10-07T15:28:23.705Z,17.64
2018-10-07T15:30:53.127Z,17.67
2018-10-07T15:33:22.532Z,17.67
2018-10-07T15:35:52.239Z,17.62
2018-10-07T15:38:21.725Z,17.59
2018-10-07T15:40:51.239Z,17.63
2018-10-07T15:43:20.661Z,17.56
2018-10-07T15:45:51.700Z,17.46
2018-10-07T15:48:21.493Z,17.43
2018-10-07T15:50:51.290Z,17.30
2018-10-07T15:53:21.046Z,17.24
2018-10-07T15:55:50.947Z,17.23
2018-10-07T15:58:20.965Z,17.06
2018-10-07T16:00:50.703Z,16.96
2018-10-07T16:03:20.322Z,16.93
2018-10-07T16:05:49.943Z,16.89
2018-10-07T16:08:20.546Z,16.87
2018-10-07T16:10:50.073Z,16.84
2018-10-07T16:13:20.573Z,16.84
2018-10-07T16:15:50.265Z,16.70
2018-10-07T16:18:19.830Z,16.66
2018-10-07T16:20:49.439Z,16.56
2018-10-07T16:23:19.733Z,16.55
2018-10-07T16:25:50.285Z,16.47
2018-10-07T16:28:21.424Z,16.46
2018-10-07T16:30:51.990Z,16.37
2018-10-07T16:33:21.649Z,16.29
2018-10-07T16:35:51.183Z,16.26
2018-10-07T16:38:20.954Z,16.16
2018-10-07T16:40:50.538Z,16.19
2018-10-07T16:43:20.210Z,16.11
2018-10-07T16:45:49.681Z,16.03
2018-10-07T16:48:19.523Z,16.00
2018-10-07T16:50:49.962Z,15.95
2018-10-07T16:53:19.530Z,15.88
2018-10-07T16:55:50.033Z,15.80
2018-10-07T16:58:19.454Z,15.82
2018-10-07T17:00:49.095Z,15.76
2018-10-07T17:10:03.893Z,15.49
2018-10-07T17:12:35.020Z,15.44
2018-10-07T17:15:04.569Z,15.41
2018-10-07T17:17:34.457Z,15.40
2018-10-07T17:20:03.908Z,15.44
2018-10-07T17:22:33.509Z,15.35
2018-10-07T17:25:03.886Z,15.26
2018-10-07T17:27:33.315Z,15.16
2018-10-07T17:30:02.890Z,15.13
2018-10-07T17:32:32.470Z,15.12
2018-10-07T17:35:02.141Z,15.04
2018-10-07T17:37:31.745Z,15.00
2018-10-07T17:40:01.536Z,14.99
2018-10-07T17:42:32.256Z,15.01
2018-10-07T17:45:01.694Z,14.99
2018-10-07T17:47:31.925Z,14.97
2018-10-07T17:50:01.467Z,14.95
2018-10-07T17:52:31.916Z,14.89
2018-10-07T17:55:05.573Z,14.88
2018-10-07T17:57:38.651Z,14.86
2018-10-07T18:00:09.077Z,14.80
2018-10-07T18:02:40.732Z,14.76
2018-10-07T18:05:22.154Z,14.74
2018-10-07T18:08:02.816Z,14.71
2018-10-07T18:10:35.637Z,14.68
2018-10-07T18:13:09.243Z,14.65
2018-10-07T18:15:40.645Z,14.60
2018-10-07T18:18:11.486Z,14.55
2018-10-07T18:20:43.554Z,14.51
2018-10-07T18:23:14.980Z,14.51
2018-10-07T18:25:45.556Z,14.46
2018-10-07T18:28:16.415Z,14.48
2018-10-07T18:30:47.744Z,14.41
2018-10-07T18:33:18.464Z,14.38
2018-10-07T18:35:49.292Z,14.38
2018-10-07T18:40:58.174Z,14.32
2018-10-07T18:43:44.372Z,14.29
2018-10-07T18:46:34.029Z,14.27
2018-10-07T18:49:24.221Z,14.20
2018-10-07T18:53:16.908Z,14.17
2018-10-07T18:56:15.443Z,14.16
2018-10-07T18:58:50.593Z,14.11
2018-10-07T19:01:21.389Z,14.09
2018-10-07T19:03:53.728Z,14.12
2018-10-07T19:06:25.557Z,14.01
2018-10-07T19:08:56.375Z,13.95
2018-10-07T19:11:26.398Z,13.88
2018-10-07T19:13:56.389Z,13.89
2018-10-07T19:16:25.759Z,13.80
2018-10-07T19:18:55.455Z,13.73
2018-10-07T19:21:25.186Z,13.77
2018-10-07T19:23:56.854Z,13.71
2018-10-07T19:26:26.852Z,13.70
2018-10-07T19:28:57.206Z,13.64
2018-10-07T19:31:30.939Z,13.61
2018-10-07T19:34:03.546Z,13.58
2018-10-07T19:36:35.107Z,13.57
2018-10-07T19:39:06.423Z,13.53
2018-10-07T19:41:37.151Z,13.49
2018-10-07T19:44:09.105Z,13.45
2018-10-07T19:49:10.496Z,13.45
2018-10-07T19:51:41.962Z,13.39
2018-10-07T19:54:12.969Z,13.38
2018-10-07T19:56:43.595Z,13.41
2018-10-07T19:59:14.859Z,13.33
2018-10-07T20:01:45.613Z,13.27
2018-10-07T20:04:15.205Z,13.23
2018-10-07T20:06:46.876Z,13.22
2018-10-07T20:09:16.640Z,13.20
2018-10-07T20:11:46.312Z,13.22
2018-10-07T20:14:15.889Z,13.14
2018-10-07T20:16:45.779Z,13.11
2018-10-07T20:19:15.292Z,13.08
2018-10-07T20:21:44.918Z,13.08
2018-10-07T20:24:14.914Z,13.03
2018-10-07T20:26:44.691Z,13.01
2018-10-07T20:29:14.278Z,13.09
2018-10-07T20:31:44.844Z,13.03
2018-10-07T20:34:15.505Z,12.99
2018-10-07T20:36:45.010Z,12.96
2018-10-07T20:39:15.566Z,12.95
2018-10-07T20:41:45.304Z,12.98
2018-10-07T20:44:14.742Z,12.95
2018-10-07T20:46:44.439Z,12.93
2018-10-07T20:49:14.047Z,12.93
2018-10-07T20:51:43.809Z,12.92
2018-10-07T20:54:13.286Z,12.89
2018-10-07T20:56:43.145Z,12.86
2018-10-07T20:59:13.665Z,12.87
2018-10-07T21:01:42.998Z,12.85
2018-10-07T21:04:17.300Z,12.84
2018-10-07T21:06:49.340Z,12.84
2018-10-07T21:09:19.840Z,12.80
2018-10-07T21:11:49.327Z,12.79
2018-10-07T21:14:27.349Z,12.80
2018-10-07T21:17:10.591Z,12.77
2018-10-07T21:19:48.569Z,12.74
2018-10-07T21:22:25.780Z,12.69
2018-10-07T21:25:06.355Z,12.65
2018-10-07T21:27:42.612Z,12.61
2018-10-07T21:30:13.619Z,12.57
2018-10-07T21:32:52.987Z,12.53
2018-10-07T21:35:31.619Z,12.43
2018-10-07T21:38:15.211Z,12.45
2018-10-07T21:40:44.752Z,12.44
2018-10-07T21:43:15.476Z,12.42
2018-10-07T21:45:44.953Z,12.38
2018-10-07T21:48:14.492Z,12.38
2018-10-07T21:53:17.024Z,12.31
2018-10-07T21:55:47.205Z,12.29
2018-10-07T21:58:17.823Z,12.22
2018-10-07T22:00:47.387Z,12.21
2018-10-07T22:03:17.039Z,12.17
2018-10-07T22:05:47.442Z,12.15
2018-10-07T22:08:17.862Z,12.18
2018-10-07T22:10:48.191Z,12.16
2018-10-07T22:13:18.472Z,12.13
2018-10-07T22:15:48.949Z,12.10
2018-10-07T22:18:19.147Z,12.07
2018-10-07T22:20:49.443Z,12.03
2018-10-07T22:23:20.106Z,11.96
2018-10-07T22:25:50.582Z,11.96
2018-10-07T22:28:22.092Z,11.93
2018-10-07T22:30:52.589Z,11.89
2018-10-07T22:33:22.897Z,11.88
2018-10-07T22:35:53.358Z,11.87
2018-10-07T22:38:24.268Z,11.85
2018-10-07T22:40:55.808Z,11.82
2018-10-07T22:43:28.171Z,11.82
2018-10-07T22:46:00.858Z,11.81
2018-10-07T22:48:33.992Z,11.78
2018-10-07T22:51:04.777Z,11.76
2018-10-07T22:53:35.444Z,11.75
2018-10-07T22:56:06.528Z,11.75
2018-10-07T22:58:36.864Z,11.76
2018-10-07T23:01:06.777Z,11.74
2018-10-07T23:03:37.192Z,11.77
2018-10-07T23:06:08.719Z,11.73
2018-10-07T23:08:38.962Z,11.70
2018-10-07T23:11:10.353Z,11.71
2018-10-07T23:13:40.029Z,11.68
2018-10-07T23:16:10.177Z,11.65
2018-10-07T23:18:40.193Z,11.61
2018-10-07T23:21:11.879Z,11.58
2018-10-07T23:23:42.048Z,11.55
2018-10-07T23:26:12.458Z,11.52
2018-10-07T23:28:44.185Z,11.52
2018-10-07T23:31:16.225Z,11.46
2018-10-07T23:33:50.141Z,11.46
2018-10-07T23:36:24.870Z,11.43
2018-10-07T23:38:55.350Z,11.41
2018-10-07T23:41:25.882Z,11.39
2018-10-07T23:43:57.268Z,11.34
2018-10-07T23:46:27.625Z,11.34
2018-10-07T23:48:57.437Z,11.30
2018-10-07T23:51:27.893Z,11.27
2018-10-07T23:53:57.140Z,11.24
2018-10-07T23:56:29.211Z,11.24
2018-10-07T23:59:02.667Z,11.22
